Time;durP1;ratioP1;P1;durP2;ratioP2;P2;SDS_P1;SDS_P2;PMS_P1;PMS_P2;Temp;Humidity;BMP_temperature;BMP_pressure;BME280_temperature;BME280_humidity;BME280_pressure;Samples;Min_cycle;Max_cycle;Signal;HPM_P1;HPM_P2
2024/01/21 00:02:21;;;;;;;25.60;9.30;;;;;;;-3.20;100.00;100940.89;107374;1280;66957;-63
2024/01/21 00:05:09;;;;;;;23.00;9.50;;;;;;;-3.22;100.00;100945.77;107165;1280;73848;-63
2024/01/21 00:07:57;;;;;;;19.90;7.70;;;;;;;-3.26;100.00;100949.60;107032;1281;57483;-63
2024/01/21 00:10:45;;;;;;;21.50;7.60;;;;;;;-3.27;100.00;100955.86;107278;1281;60283;-62
2024/01/21 00:13:32;;;;;;;20.90;7.80;;;;;;;-3.28;100.00;100958.98;107338;1279;72945;-63
2024/01/21 00:16:20;;;;;;;20.90;7.50;;;;;;;-3.29;100.00;100956.21;107108;1279;67996;-63
2024/01/21 00:19:07;;;;;;;23.90;8.70;;;;;;;-3.28;100.00;100951.34;106596;1280;1002254;-63
2024/01/21 00:21:55;;;;;;;19.30;7.80;;;;;;;-3.29;100.00;100945.98;107258;1279;58757;-62
2024/01/21 00:24:43;;;;;;;31.20;10.50;;;;;;;-3.30;100.00;100945.45;107411;1279;60386;-62
2024/01/21 00:27:30;;;;;;;27.10;9.60;;;;;;;-3.28;100.00;100953.95;107392;1280;73979;-62
2024/01/21 00:30:18;;;;;;;30.90;9.60;;;;;;;-3.30;100.00;100959.17;107349;1280;68112;-62
2024/01/21 00:33:06;;;;;;;26.90;10.30;;;;;;;-3.33;100.00;100961.96;107192;1280;72453;-62
2024/01/21 00:35:54;;;;;;;30.10;9.50;;;;;;;-3.34;100.00;100963.19;107280;1280;58979;-62
2024/01/21 00:38:42;;;;;;;27.60;9.30;;;;;;;-3.36;100.00;100963.02;107435;1280;61767;-61
2024/01/21 00:41:31;;;;;;;26.90;10.10;;;;;;;-3.35;100.00;100967.36;107458;1280;74030;-62
2024/01/21 00:44:19;;;;;;;29.50;10.30;;;;;;;-3.38;100.00;100961.66;107468;1280;65930;-62
2024/01/21 00:47:06;;;;;;;30.10;10.70;;;;;;;-3.33;100.00;100972.90;107484;1280;71397;-62
2024/01/21 00:49:54;;;;;;;24.00;8.80;;;;;;;-3.33;100.00;100975.69;107432;1280;57333;-63
2024/01/21 00:52:43;;;;;;;25.10;9.30;;;;;;;-3.33;100.00;100970.65;107478;1280;59065;-62
2024/01/21 00:55:31;;;;;;;24.80;8.60;;;;;;;-3.33;100.00;100971.70;107347;1279;73131;-62
2024/01/21 00:58:19;;;;;;;26.20;9.20;;;;;;;-3.34;100.00;100971.17;106575;1280;1002367;-61
2024/01/21 01:01:06;;;;;;;27.40;8.80;;;;;;;-3.33;100.00;100971.70;105746;1280;1003034;-61
2024/01/21 01:03:54;;;;;;;25.90;8.90;;;;;;;-3.31;100.00;100974.80;106542;1280;1002947;-62
2024/01/21 01:06:42;;;;;;;20.60;8.30;;;;;;;-3.29;100.00;100973.73;107465;1280;58743;-63
2024/01/21 01:09:30;;;;;;;21.10;8.50;;;;;;;-3.26;100.00;100976.50;107301;1280;73975;-62
2024/01/21 01:12:18;;;;;;;23.20;9.40;;;;;;;-3.21;100.00;100981.35;107469;1279;68188;-62
2024/01/21 01:15:11;;;;;;;24.20;9.30;;;;;;;-3.18;100.00;100974.38;107311;1279;71799;-62
2024/01/21 01:17:59;;;;;;;22.50;8.00;;;;;;;-3.15;100.00;100974.54;107014;1280;58800;-63
2024/01/21 01:20:47;;;;;;;26.00;9.10;;;;;;;-3.13;100.00;100974.86;107386;1279;61106;-61
2024/01/21 01:23:35;;;;;;;25.80;8.20;;;;;;;-3.09;100.00;100973.28;107340;1280;72826;-61
2024/01/21 01:26:23;;;;;;;24.90;7.90;;;;;;;-3.07;100.00;100966.48;106639;1280;1003054;-62
2024/01/21 01:29:11;;;;;;;19.00;6.90;;;;;;;-3.06;100.00;100966.48;107309;1280;70800;-62
2024/01/21 01:32:01;;;;;;;16.90;12.60;;;;;;;-3.07;100.00;100968.92;107388;1280;57287;-61
2024/01/21 01:34:54;;;;;;;18.60;7.30;;;;;;;-3.09;100.00;100967.38;107192;1280;58797;-61
2024/01/21 01:37:43;;;;;;;18.90;6.60;;;;;;;-3.07;100.00;100972.23;107320;1280;72941;-63
2024/01/21 01:40:30;;;;;;;21.10;7.30;;;;;;;-3.07;100.00;100973.61;107328;1280;67725;-62
2024/01/21 01:43:18;;;;;;;16.60;6.10;;;;;;;-3.06;100.00;100969.08;107304;1280;70296;-62
2024/01/21 01:46:06;;;;;;;17.70;6.80;;;;;;;-3.06;100.00;100974.98;107096;1283;60292;-60
2024/01/21 01:48:58;;;;;;;19.80;7.00;;;;;;;-3.04;100.00;100974.29;107102;1281;58053;-62
2024/01/21 01:51:46;;;;;;;20.90;6.90;;;;;;;-3.00;100.00;100977.02;107349;1280;74302;-62
2024/01/21 01:54:35;;;;;;;16.80;7.60;;;;;;;-2.96;100.00;100977.53;107143;1282;69000;-62
2024/01/21 01:57:24;;;;;;;15.80;6.30;;;;;;;-2.91;100.00;100979.40;107114;1280;71161;-61
2024/01/21 02:00:13;;;;;;;18.30;6.30;;;;;;;-2.85;100.00;100988.02;107292;1283;58035;-63
2024/01/21 02:03:02;;;;;;;19.10;6.50;;;;;;;-2.80;100.00;100984.34;107071;1282;59289;-61
2024/01/21 02:05:52;;;;;;;15.90;6.00;;;;;;;-2.75;100.00;100984.48;107087;1279;73984;-61
2024/01/21 02:08:40;;;;;;;16.90;6.40;;;;;;;-2.70;100.00;100987.23;107323;1282;67991;-61
2024/01/21 02:11:28;;;;;;;18.30;7.60;;;;;;;-2.66;100.00;100987.73;107098;1283;71496;-61
2024/01/21 02:14:16;;;;;;;17.00;6.00;;;;;;;-2.61;100.00;100985.23;107323;1280;57501;-61
2024/01/21 02:17:04;;;;;;;16.80;6.00;;;;;;;-2.54;100.00;100982.05;106331;1280;1002245;-61
2024/01/21 02:19:52;;;;;;;17.10;6.70;;;;;;;-2.49;100.00;100983.91;107216;1280;74308;-61
2024/01/21 02:22:40;;;;;;;15.40;5.70;;;;;;;-2.43;100.00;100980.21;107328;1280;67839;-61
2024/01/21 02:25:28;;;;;;;14.80;5.50;;;;;;;-2.36;100.00;100977.89;107235;1281;71641;-63
2024/01/21 02:28:16;;;;;;;15.70;5.60;;;;;;;-2.29;100.00;100978.52;107300;1280;57850;-62
2024/01/21 02:31:05;;;;;;;14.70;5.10;;;;;;;-2.21;100.00;100979.13;107357;1280;58871;-62
2024/01/21 02:33:53;;;;;;;11.80;4.40;;;;;;;-2.14;100.00;100975.05;107357;1279;74255;-62
2024/01/21 02:36:41;;;;;;;12.80;4.30;;;;;;;-2.09;100.00;100972.38;106526;1279;1002384;-62
2024/01/21 02:39:29;;;;;;;15.30;5.20;;;;;;;-2.06;100.00;100976.18;107324;1280;72457;-62
2024/01/21 02:42:17;;;;;;;10.10;3.60;;;;;;;-2.02;100.00;100981.72;107074;1280;59571;-61
2024/01/21 02:45:05;;;;;;;14.00;5.00;;;;;;;-2.00;100.00;100984.98;107233;1279;61267;-61
2024/01/21 02:47:53;;;;;;;15.90;5.20;;;;;;;-1.95;100.00;100984.23;107329;1279;72746;-61
2024/01/21 02:50:41;;;;;;;12.10;5.10;;;;;;;-1.90;100.00;100980.88;106533;1279;1002495;-62
2024/01/21 02:53:29;;;;;;;13.90;5.00;;;;;;;-1.88;100.00;100974.05;107360;1280;72537;-63
2024/01/21 02:56:24;;;;;;;13.60;5.60;;;;;;;-1.85;100.00;100971.78;107329;1280;58745;-63
2024/01/21 02:59:12;;;;;;;14.10;5.50;;;;;;;-1.85;100.00;100966.73;107155;1280;61433;-62
2024/01/21 03:01:59;;;;;;;13.20;5.40;;;;;;;-1.83;100.00;100970.89;107320;1279;73125;-63
2024/01/21 03:04:47;;;;;;;11.50;4.90;;;;;;;-1.81;100.00;100975.73;107322;1279;67938;-61
2024/01/21 03:07:35;;;;;;;12.80;4.80;;;;;;;-1.81;100.00;100977.46;107363;1280;72317;-61
2024/01/21 03:10:23;;;;;;;8.50;3.70;;;;;;;-1.79;100.00;100977.09;107313;1280;58586;-61
2024/01/21 03:13:11;;;;;;;11.60;4.80;;;;;;;-1.76;100.00;100981.07;107334;1279;58843;-62
2024/01/21 03:15:59;;;;;;;14.90;5.00;;;;;;;-1.83;100.00;100967.05;107356;1280;72968;-62
2024/01/21 03:18:48;;;;;;;11.10;4.00;;;;;;;-1.72;100.00;100981.18;107250;1279;67576;-61
2024/01/21 03:21:35;;;;;;;12.50;4.90;;;;;;;-1.67;100.00;100982.17;107349;1279;73914;-62
2024/01/21 03:24:24;;;;;;;14.70;4.80;;;;;;;-1.63;100.00;100982.30;107173;1283;58483;-62
2024/01/21 03:27:13;;;;;;;14.30;4.60;;;;;;;-1.59;100.00;100985.90;107329;1280;60013;-61
2024/01/21 03:30:02;;;;;;;11.10;4.30;;;;;;;-1.55;100.00;100980.97;107106;1280;72350;-62
2024/01/21 03:32:49;;;;;;;14.00;4.90;;;;;;;-1.52;100.00;100984.94;107140;1279;69148;-62
2024/01/21 03:35:37;;;;;;;14.70;5.30;;;;;;;-1.50;100.00;100983.86;107154;1279;72761;-62
2024/01/21 03:38:25;;;;;;;10.80;4.70;;;;;;;-1.47;100.00;100978.26;107201;1279;59706;-62
2024/01/21 03:41:13;;;;;;;11.80;4.70;;;;;;;-1.44;100.00;100972.64;107118;1280;58739;-62
2024/01/21 03:44:00;;;;;;;13.30;5.20;;;;;;;-1.42;100.00;100966.52;107363;1279;72826;-62
2024/01/21 03:46:49;;;;;;;13.30;5.50;;;;;;;-1.38;100.00;100965.95;107340;1280;67964;-64
2024/01/21 03:49:37;;;;;;;12.20;4.60;;;;;;;-1.34;100.00;100967.47;107299;1280;73463;-61
2024/01/21 03:52:25;;;;;;;14.50;5.80;;;;;;;-1.32;100.00;100964.82;107065;1279;57383;-61
2024/01/21 03:55:20;;;;;;;15.70;5.50;;;;;;;-1.31;100.00;100968.98;107321;1280;60088;-62
2024/01/21 03:58:08;;;;;;;14.50;5.90;;;;;;;-1.36;100.00;100966.45;106565;1279;1002354;-61
2024/01/21 04:00:56;;;;;;;13.20;5.60;;;;;;;-1.32;100.00;100973.00;107245;1279;66766;-62
2024/01/21 04:03:44;;;;;;;14.60;5.60;;;;;;;-1.31;100.00;100971.26;107110;1280;71421;-62
2024/01/21 04:06:39;;;;;;;15.20;5.60;;;;;;;-1.29;100.00;100971.91;106381;1279;1002236;-62
2024/01/21 04:09:26;;;;;;;17.30;6.60;;;;;;;-1.28;100.00;100975.20;107146;1279;60035;-62
2024/01/21 04:12:14;;;;;;;15.30;6.10;;;;;;;-1.26;100.00;100971.02;107263;1279;73001;-62
2024/01/21 04:15:02;;;;;;;18.80;7.30;;;;;;;-1.25;100.00;100972.54;107442;1280;67927;-61
2024/01/21 04:17:50;;;;;;;20.20;7.90;;;;;;;-1.23;100.00;100970.97;107694;1279;72449;-63
2024/01/21 04:20:39;;;;;;;17.40;6.60;;;;;;;-1.21;100.00;100973.02;107165;1279;57374;-60
2024/01/21 04:23:27;;;;;;;18.90;7.30;;;;;;;-1.18;100.00;100973.67;107380;1279;61316;-63
2024/01/21 04:26:15;;;;;;;17.90;7.50;;;;;;;-1.14;100.00;100971.52;107345;1279;73381;-65
2024/01/21 04:29:03;;;;;;;18.90;6.70;;;;;;;-1.11;100.00;100968.70;107370;1279;66962;-62
2024/01/21 04:31:50;;;;;;;20.60;7.80;;;;;;;-1.08;100.00;100971.77;107382;1280;73190;-62
2024/01/21 04:34:38;;;;;;;17.60;7.00;;;;;;;-1.02;100.00;100972.91;107325;1279;58979;-62
2024/01/21 04:37:26;;;;;;;22.60;7.40;;;;;;;-0.97;100.00;100968.67;107123;1280;60348;-63
2024/01/21 04:40:13;;;;;;;18.20;6.70;;;;;;;-0.95;100.00;100970.19;107362;1279;72701;-61
2024/01/21 04:43:02;;;;;;;18.30;7.30;;;;;;;-0.92;100.00;100976.77;107237;1279;68698;-62
2024/01/21 04:45:49;;;;;;;23.90;8.80;;;;;;;-0.87;100.00;100976.16;107380;1279;72401;-61
2024/01/21 04:48:37;;;;;;;22.90;7.70;;;;;;;-0.82;100.00;100970.17;107297;1279;60078;-60
2024/01/21 04:51:25;;;;;;;24.20;9.60;;;;;;;-0.77;100.00;100967.12;107123;1280;59124;-60
2024/01/21 04:54:13;;;;;;;24.70;9.10;;;;;;;-0.74;100.00;100966.19;107171;1279;71545;-60
2024/01/21 04:57:02;;;;;;;22.00;9.10;;;;;;;-0.68;100.00;100960.86;107258;1279;67945;-62
2024/01/21 04:59:50;;;;;;;22.00;7.10;;;;;;;-0.63;100.00;100954.85;107303;1280;71962;-61
2024/01/21 05:02:37;;;;;;;19.40;7.80;;;;;;;-0.59;100.00;100950.60;107127;1279;58835;-62
2024/01/21 05:05:25;;;;;;;21.10;7.80;;;;;;;-0.55;100.00;100954.89;107246;1279;61048;-63
2024/01/21 05:08:13;;;;;;;22.40;7.60;;;;;;;-0.54;100.00;100954.17;106482;1279;1002349;-64
2024/01/21 05:11:01;;;;;;;21.80;7.10;;;;;;;-0.53;100.00;100956.43;107131;1279;66652;-62
2024/01/21 05:13:49;;;;;;;22.20;8.50;;;;;;;-0.51;100.00;100957.62;107280;1280;73440;-61
2024/01/21 05:16:40;;;;;;;22.10;7.70;;;;;;;-0.48;100.00;100957.40;107258;1279;57696;-62
2024/01/21 05:19:28;;;;;;;24.00;8.10;;;;;;;-0.43;100.00;100960.96;107085;1280;59095;-63
2024/01/21 05:22:16;;;;;;;25.90;8.90;;;;;;;-0.44;100.00;100959.22;107347;1279;74184;-62
2024/01/21 05:25:05;;;;;;;23.80;8.20;;;;;;;-0.38;100.00;100963.13;107403;1279;68757;-62
2024/01/21 05:27:53;;;;;;;23.10;9.00;;;;;;;-0.35;100.00;100968.48;107343;1280;72865;-62
2024/01/21 05:30:40;;;;;;;25.20;7.30;;;;;;;-0.33;100.00;100968.11;107380;1279;59497;-61
2024/01/21 05:33:28;;;;;;;19.40;6.20;;;;;;;-0.30;100.00;100966.14;107266;1280;59232;-61
2024/01/21 05:36:16;;;;;;;24.70;7.70;;;;;;;-0.30;100.00;100967.36;107412;1279;71882;-61
2024/01/21 05:39:05;;;;;;;23.00;9.10;;;;;;;-0.29;100.00;100965.41;107325;1280;67238;-63
2024/01/21 05:42:10;;;;;;;25.30;9.40;;;;;;;-0.26;100.00;100962.75;107407;1279;72454;-61
2024/01/21 05:45:00;;;;;;;22.10;8.80;;;;;;;-0.22;100.00;100954.81;107339;1280;57309;-62
2024/01/21 05:47:48;;;;;;;21.40;7.90;;;;;;;-0.21;100.00;100950.43;107348;1279;61246;-61
2024/01/21 05:50:36;;;;;;;21.90;7.70;;;;;;;-0.20;100.00;100951.45;107365;1279;71733;-64
2024/01/21 05:53:23;;;;;;;25.10;9.60;;;;;;;-0.20;100.00;100950.42;107395;1279;68025;-62
2024/01/21 05:56:11;;;;;;;23.10;9.60;;;;;;;-0.19;100.00;100951.44;107383;1280;73797;-62
2024/01/21 05:58:59;;;;;;;19.70;7.30;;;;;;;-0.16;100.00;100950.72;107356;1279;58636;-62
2024/01/21 06:01:50;;;;;;;22.30;8.90;;;;;;;-0.14;100.00;100951.71;107282;1280;59041;-61
2024/01/21 06:04:40;;;;;;;25.60;9.50;;;;;;;-0.12;100.00;100951.33;107370;1279;72665;-62
2024/01/21 06:07:28;;;;;;;19.20;7.20;;;;;;;-0.09;100.00;100957.38;107396;1279;66467;-63
2024/01/21 06:10:15;;;;;;;20.40;8.60;;;;;;;-0.09;100.00;100955.62;107341;1279;72737;-62
2024/01/21 06:13:06;;;;;;;29.10;10.40;;;;;;;-0.08;100.00;100958.20;106969;1279;1002340;-62
2024/01/21 06:15:54;;;;;;;25.60;9.10;;;;;;;-0.06;100.00;100960.44;107395;1280;60085;-64
2024/01/21 06:18:44;;;;;;;25.20;9.40;;;;;;;-0.06;100.00;100951.71;107355;1280;73174;-62
2024/01/21 06:21:32;;;;;;;27.00;9.00;;;;;;;-0.10;100.00;100946.21;107341;1279;67954;-62
2024/01/21 06:24:20;;;;;;;29.40;10.70;;;;;;;-0.05;100.00;100955.02;107171;1279;71145;-62
2024/01/21 06:27:08;;;;;;;22.50;8.50;;;;;;;-0.04;100.00;100956.75;106779;1280;58515;-62
2024/01/21 06:29:56;;;;;;;24.00;8.70;;;;;;;-0.05;100.00;100959.02;107304;1279;58823;-63
2024/01/21 06:32:44;;;;;;;31.70;11.60;;;;;;;-0.07;100.00;100960.81;106465;1280;1002121;-62
2024/01/21 06:35:46;;;;;;;23.80;8.40;;;;;;;-0.06;100.00;100954.68;107105;1280;67738;-62
2024/01/21 06:38:34;;;;;;;26.90;10.20;;;;;;;-0.05;100.00;100953.10;107083;1280;73607;-62
2024/01/21 06:41:22;;;;;;;27.30;9.90;;;;;;;-0.08;100.00;100946.17;106557;1280;1002722;-62
2024/01/21 06:44:10;;;;;;;29.00;11.40;;;;;;;-0.08;100.00;100945.66;106365;1280;1002301;-63
2024/01/21 06:46:58;;;;;;;30.10;11.50;;;;;;;-0.07;100.00;100937.63;107322;1280;72888;-61
2024/01/21 06:49:46;;;;;;;24.50;10.00;;;;;;;-0.06;100.00;100932.34;107222;1280;66494;-62
2024/01/21 06:52:34;;;;;;;21.80;8.90;;;;;;;-0.10;100.00;100919.52;107286;1279;73738;-64
2024/01/21 06:55:23;;;;;;;25.40;9.60;;;;;;;-0.07;100.00;100927.67;107364;1279;58497;-63
2024/01/21 06:58:11;;;;;;;24.40;9.00;;;;;;;-0.08;100.00;100924.73;107138;1280;61427;-63
2024/01/21 07:00:59;;;;;;;27.10;9.40;;;;;;;-0.10;100.00;100923.73;107154;1279;73225;-62
2024/01/21 07:03:47;;;;;;;28.00;10.90;;;;;;;-0.13;100.00;100924.13;107327;1280;66483;-65
2024/01/21 07:06:35;;;;;;;26.50;9.90;;;;;;;-0.14;100.00;100930.41;107098;1281;72475;-64
2024/01/21 07:09:24;;;;;;;25.60;9.50;;;;;;;-0.15;100.00;100935.52;107090;1281;59593;-63
2024/01/21 07:12:13;;;;;;;24.50;8.20;;;;;;;-0.13;100.00;100940.36;107158;1281;60094;-63
2024/01/21 07:15:00;;;;;;;28.80;10.60;;;;;;;-0.13;100.00;100941.58;107162;1280;72878;-66
2024/01/21 07:17:48;;;;;;;27.10;10.60;;;;;;;-0.11;100.00;100942.92;107091;1279;67706;-62
2024/01/21 07:20:36;;;;;;;24.10;8.70;;;;;;;-0.08;100.00;100939.89;107132;1279;71720;-63
2024/01/21 07:23:24;;;;;;;19.30;8.90;;;;;;;-0.07;100.00;100942.33;107334;1279;57400;-62
2024/01/21 07:26:12;;;;;;;23.10;9.10;;;;;;;-0.08;100.00;100947.23;107396;1279;59082;-61
2024/01/21 07:28:59;;;;;;;28.80;11.10;;;;;;;-0.10;100.00;100948.31;107406;1279;73185;-62
2024/01/21 07:31:47;;;;;;;19.30;8.50;;;;;;;-0.10;100.00;100945.34;107219;1280;66108;-63
2024/01/21 07:34:35;;;;;;;23.10;9.10;;;;;;;-0.07;100.00;100941.80;107372;1280;70408;-62
2024/01/21 07:37:23;;;;;;;25.10;10.70;;;;;;;-0.03;100.00;100939.46;107364;1279;57401;-61
2024/01/21 07:40:12;;;;;;;26.00;9.30;;;;;;;-0.01;100.00;100938.00;107309;1280;58863;-62
2024/01/21 07:43:00;;;;;;;23.50;9.30;;;;;;;-0.06;100.00;100927.13;107112;1280;74512;-62
2024/01/21 07:45:49;;;;;;;19.90;8.90;;;;;;;-0.02;100.00;100933.84;107339;1279;68156;-62
2024/01/21 07:48:37;;;;;;;17.70;7.90;;;;;;;0.03;100.00;100936.02;107200;1279;72571;-60
2024/01/21 07:51:25;;;;;;;23.60;7.80;;;;;;;0.04;100.00;100930.23;107363;1279;58429;-61
2024/01/21 07:54:13;;;;;;;17.70;7.40;;;;;;;0.05;100.00;100933.70;107330;1279;58979;-62
2024/01/21 07:57:01;;;;;;;17.20;7.10;;;;;;;0.13;100.00;100934.77;107427;1279;73493;-62
2024/01/21 07:59:49;;;;;;;17.20;6.90;;;;;;;0.18;100.00;100931.18;107225;1279;68806;-63
2024/01/21 08:02:36;;;;;;;17.90;8.00;;;;;;;0.16;100.00;100934.17;107406;1279;73425;-62
2024/01/21 08:05:24;;;;;;;20.90;7.60;;;;;;;0.21;100.00;100930.59;107372;1279;59838;-60
2024/01/21 08:08:13;;;;;;;19.40;6.70;;;;;;;0.28;100.00;100928.52;107396;1279;60513;-61
2024/01/21 08:11:01;;;;;;;19.60;6.90;;;;;;;0.44;100.00;100926.08;107251;1279;73878;-59
2024/01/21 08:13:49;;;;;;;16.70;6.90;;;;;;;0.59;100.00;100928.55;107396;1279;68654;-62
2024/01/21 08:16:36;;;;;;;14.70;6.40;;;;;;;0.69;100.00;100923.77;107325;1279;72420;-63
2024/01/21 08:19:24;;;;;;;16.10;6.10;;;;;;;0.68;100.00;100918.55;107373;1279;58580;-62
2024/01/21 08:22:13;;;;;;;18.70;6.90;;;;;;;0.69;100.00;100905.96;107293;1280;60306;-61
2024/01/21 08:25:01;;;;;;;16.80;6.70;;;;;;;0.70;100.00;100907.17;107109;1279;73726;-62
2024/01/21 08:27:48;;;;;;;15.60;6.10;;;;;;;0.72;100.00;100909.04;107213;1280;66770;-62
2024/01/21 08:30:36;;;;;;;16.70;7.00;;;;;;;0.75;100.00;100896.04;107309;1280;73635;-62
2024/01/21 08:33:24;;;;;;;17.80;6.80;;;;;;;0.79;100.00;100892.27;107175;1279;57429;-61
2024/01/21 08:36:13;;;;;;;17.60;6.30;;;;;;;0.83;100.00;100888.84;106500;1279;1015452;-62
2024/01/21 08:39:01;;;;;;;17.70;7.60;;;;;;;0.88;100.00;100892.77;107215;1280;72896;-61
2024/01/21 08:41:49;;;;;;;24.60;9.10;;;;;;;0.91;100.00;100894.26;107347;1279;67915;-62
2024/01/21 08:44:37;;;;;;;18.20;6.70;;;;;;;1.12;100.00;100889.02;107312;1279;72671;-62
2024/01/21 08:47:25;;;;;;;17.60;7.30;;;;;;;1.56;100.00;100880.71;107152;1280;57413;-60
2024/01/21 08:50:13;;;;;;;17.90;7.50;;;;;;;2.01;100.00;100882.75;107100;1279;58782;-61
2024/01/21 08:53:01;;;;;;;17.50;7.30;;;;;;;2.37;98.62;100884.67;107221;1280;74093;-62
2024/01/21 08:55:50;;;;;;;19.30;7.90;;;;;;;2.43;96.70;100888.34;107061;1280;68133;-61
2024/01/21 08:58:37;;;;;;;18.50;7.40;;;;;;;2.42;96.85;100889.45;107330;1279;72721;-61
2024/01/21 09:01:25;;;;;;;18.80;8.00;;;;;;;2.27;96.36;100889.00;107286;1279;59184;-61
2024/01/21 09:04:15;;;;;;;19.40;7.50;;;;;;;2.70;95.78;100892.93;107190;1279;61429;-61
2024/01/21 09:07:03;;;;;;;20.30;8.70;;;;;;;3.84;89.69;100895.39;107355;1279;71972;-61
2024/01/21 09:09:51;;;;;;;20.00;8.00;;;;;;;4.25;85.95;100893.52;107296;1280;68926;-62
2024/01/21 09:12:39;;;;;;;19.30;7.40;;;;;;;3.75;86.73;100894.84;107232;1280;72793;-61
2024/01/21 09:15:27;;;;;;;19.40;7.70;;;;;;;3.39;88.59;100894.34;107274;1279;57371;-61
2024/01/21 09:18:15;;;;;;;19.30;8.20;;;;;;;3.23;89.50;100893.13;107321;1279;60105;-63
2024/01/21 09:21:03;;;;;;;18.70;7.50;;;;;;;3.31;89.22;100894.95;107358;1279;72884;-64
2024/01/21 09:24:01;;;;;;;20.40;8.40;;;;;;;4.23;88.66;100892.50;107241;1280;67836;-63
2024/01/21 09:26:49;;;;;;;19.80;8.30;;;;;;;5.57;79.43;100890.98;107108;1279;73653;-61
2024/01/21 09:29:37;;;;;;;16.50;7.40;;;;;;;6.47;73.71;100884.83;107260;1280;57390;-62
2024/01/21 09:32:28;;;;;;;17.90;7.50;;;;;;;7.40;70.78;100882.70;107114;1279;252331;-65
2024/01/21 09:35:16;;;;;;;17.60;7.90;;;;;;;7.55;66.79;100877.52;107327;1280;71886;-64
2024/01/21 09:38:05;;;;;;;17.90;7.70;;;;;;;6.84;68.30;100877.91;107326;1279;67629;-65
2024/01/21 09:41:25;;;;;;;18.00;7.50;;;;;;;5.81;70.58;100884.63;107281;1280;72575;-63
2024/01/21 09:44:14;;;;;;;15.80;6.40;;;;;;;4.96;74.27;100889.14;107062;1280;57375;-64
2024/01/21 09:47:03;;;;;;;16.30;7.50;;;;;;;4.17;76.41;100883.11;107225;1281;59998;-64
2024/01/21 09:49:51;;;;;;;16.20;6.40;;;;;;;3.59;79.21;100877.85;107185;1280;75269;-64
2024/01/21 09:52:39;;;;;;;20.10;7.70;;;;;;;3.18;81.05;100876.65;107259;1280;68078;-64
2024/01/21 09:55:27;;;;;;;17.00;7.80;;;;;;;2.91;82.62;100874.89;107256;1280;73459;-66
2024/01/21 09:58:16;;;;;;;16.20;6.90;;;;;;;2.62;83.13;100881.08;107230;1280;57382;-64
2024/01/21 10:01:05;;;;;;;15.80;6.80;;;;;;;2.54;83.59;100881.53;106464;1281;1002180;-65
2024/01/21 10:03:53;;;;;;;15.30;6.90;;;;;;;2.37;83.69;100883.29;106998;1281;70604;-65
2024/01/21 10:06:43;;;;;;;15.60;6.70;;;;;;;2.22;83.91;100882.50;107233;1281;67825;-64
2024/01/21 10:09:31;;;;;;;13.20;5.90;;;;;;;2.46;83.91;100885.11;107266;1281;71510;-63
2024/01/21 10:12:24;;;;;;;13.60;5.60;;;;;;;2.60;82.49;100880.66;107094;1281;57256;-65
2024/01/21 10:15:14;;;;;;;14.10;5.90;;;;;;;2.46;82.19;100879.33;107239;1281;60070;-63
2024/01/21 10:18:02;;;;;;;17.30;6.50;;;;;;;2.37;82.49;100880.99;107247;1281;70552;-65
2024/01/21 10:20:51;;;;;;;16.20;6.80;;;;;;;2.30;82.80;100881.71;107295;1280;66404;-63
2024/01/21 10:23:40;;;;;;;18.50;6.90;;;;;;;2.45;82.26;100872.71;107207;1280;72746;-64
2024/01/21 10:26:28;;;;;;;15.30;7.10;;;;;;;2.70;81.29;100862.46;107069;1280;58523;-64
2024/01/21 10:29:17;;;;;;;19.30;6.60;;;;;;;3.11;79.29;100863.04;107348;1280;58836;-64
2024/01/21 10:32:05;;;;;;;16.20;7.60;;;;;;;3.84;75.90;100850.98;107297;1280;73058;-63
2024/01/21 10:34:53;;;;;;;16.80;7.10;;;;;;;4.43;72.26;100848.73;107319;1279;68816;-62
2024/01/21 10:37:41;;;;;;;16.20;6.80;;;;;;;4.82;69.93;100842.41;107343;1279;72333;-62
2024/01/21 10:40:29;;;;;;;14.90;6.60;;;;;;;5.75;65.31;100833.48;107368;1280;57340;-65
2024/01/21 10:43:18;;;;;;;14.50;6.10;;;;;;;6.27;62.29;100829.36;107384;1279;60214;-62
2024/01/21 10:46:10;;;;;;;16.60;7.20;;;;;;;6.58;60.64;100826.28;107260;1279;73729;-63
2024/01/21 10:48:59;;;;;;;13.90;6.40;;;;;;;7.43;55.28;100810.66;107256;1280;69392;-64
2024/01/21 10:51:48;;;;;;;20.00;7.90;;;;;;;8.62;51.14;100800.98;107403;1279;72693;-63
2024/01/21 10:54:37;;;;;;;14.60;7.50;;;;;;;9.02;49.07;100800.10;107406;1279;57406;-63
2024/01/21 10:57:25;;;;;;;16.80;7.00;;;;;;;7.92;49.82;100799.41;107107;1279;60567;-64
2024/01/21 11:00:15;;;;;;;16.10;7.50;;;;;;;6.58;52.68;100796.79;107326;1280;73363;-63
2024/01/21 11:03:24;;;;;;;14.50;6.60;;;;;;;5.87;55.48;100798.27;107302;1279;67790;-62
2024/01/21 11:06:12;;;;;;;18.20;7.60;;;;;;;4.66;58.13;100803.33;107262;1280;72640;-64
2024/01/21 11:09:03;;;;;;;13.80;6.70;;;;;;;4.15;60.99;100807.64;107310;1280;57913;-63
2024/01/21 11:11:52;;;;;;;12.60;5.30;;;;;;;3.69;62.87;100808.51;107313;1279;59992;-64
2024/01/21 11:14:43;;;;;;;13.20;6.00;;;;;;;3.43;64.74;100820.01;107460;1280;71618;-62
2024/01/21 11:17:32;;;;;;;16.50;7.00;;;;;;;3.25;65.97;100812.91;106662;1280;1002482;-61
2024/01/21 11:20:26;;;;;;;19.00;8.60;;;;;;;2.97;67.20;100803.20;105748;1280;1002423;-61
2024/01/21 11:23:16;;;;;;;15.90;7.40;;;;;;;2.88;67.87;100806.67;107253;1280;58470;-63
2024/01/21 11:26:05;;;;;;;17.70;7.60;;;;;;;2.80;68.25;100804.65;107278;1280;61107;-63
2024/01/21 11:28:53;;;;;;;17.90;7.20;;;;;;;3.08;67.73;100796.84;107020;1280;73904;-62
2024/01/21 11:31:41;;;;;;;20.60;7.30;;;;;;;3.88;66.16;100792.70;107342;1280;66778;-61
2024/01/21 11:34:38;;;;;;;18.30;8.50;;;;;;;4.58;62.13;100787.30;107287;1280;73753;-63
2024/01/21 11:37:27;;;;;;;20.00;8.40;;;;;;;4.25;61.56;100782.86;107133;1280;57544;-63
2024/01/21 11:40:15;;;;;;;21.10;8.60;;;;;;;3.84;62.49;100783.92;107280;1281;60239;-62
2024/01/21 11:43:03;;;;;;;16.60;7.10;;;;;;;3.27;64.41;100785.86;107318;1280;72025;-63
2024/01/21 11:45:51;;;;;;;18.40;7.70;;;;;;;2.83;66.29;100775.96;107341;1280;67806;-65
2024/01/21 11:48:38;;;;;;;19.60;7.80;;;;;;;2.42;67.70;100781.17;107271;1280;72617;-63
2024/01/21 11:51:26;;;;;;;18.30;8.00;;;;;;;2.06;69.07;100775.48;107224;1280;57469;-62
2024/01/21 11:54:15;;;;;;;17.60;7.60;;;;;;;1.77;70.17;100764.63;107269;1280;60483;-66
2024/01/21 11:57:06;;;;;;;17.40;7.40;;;;;;;1.57;71.54;100754.02;107352;1280;72585;-64
2024/01/21 11:59:55;;;;;;;16.50;7.60;;;;;;;1.39;72.95;100749.99;107235;1280;66456;-64
2024/01/21 12:02:46;;;;;;;20.50;8.40;;;;;;;1.28;73.67;100755.54;107322;1280;71627;-64
2024/01/21 12:05:37;;;;;;;17.40;8.30;;;;;;;1.14;74.12;100758.58;107240;1280;57424;-63
2024/01/21 12:08:25;;;;;;;18.80;7.30;;;;;;;1.02;75.34;100757.48;107308;1283;61216;-63
2024/01/21 12:11:14;;;;;;;18.20;7.60;;;;;;;0.91;75.74;100761.45;107223;1280;71657;-62
2024/01/21 12:14:08;;;;;;;18.90;7.70;;;;;;;0.85;76.17;100763.73;107256;1280;66059;-61
2024/01/21 12:16:56;;;;;;;21.00;8.60;;;;;;;0.91;76.38;100766.17;107332;1280;72928;-64
2024/01/21 12:19:45;;;;;;;18.20;7.70;;;;;;;0.96;75.58;100759.94;106550;1280;1002479;-62
2024/01/21 12:22:41;;;;;;;15.80;7.30;;;;;;;1.02;75.05;100761.68;107448;1280;61330;-62
2024/01/21 12:25:30;;;;;;;17.90;7.40;;;;;;;1.02;74.53;100756.10;107327;1279;72900;-65
2024/01/21 12:28:18;;;;;;;20.70;7.70;;;;;;;1.00;74.53;100762.10;107345;1280;67723;-64
2024/01/21 12:31:07;;;;;;;12.50;5.50;;;;;;;1.07;75.07;100773.46;107453;1280;72887;-65
2024/01/21 12:33:57;;;;;;;18.00;7.20;;;;;;;1.02;74.43;100769.56;107344;1280;57466;-63
2024/01/21 12:36:46;;;;;;;14.80;6.70;;;;;;;0.93;74.51;100764.21;106518;1279;1002387;-63
2024/01/21 12:39:34;;;;;;;17.00;6.10;;;;;;;0.83;74.90;100760.45;107461;1279;71663;-63
2024/01/21 12:42:21;;;;;;;17.20;7.00;;;;;;;0.78;75.38;100758.13;107427;1280;68613;-64